Terminal Aerodrome Forecast
Issued by NWS Twin Cities, MN

Home | Current Version | Previous Version | Graphics & Text | Print | Product List | Glossary On
Versions: 1 2 3 4 5 6 7 8 9 10 11 12 13 14 15 16 17 18 19 20 21 22 23 24 25 26
037
FTUS43 KMPX 091137
TAFMSP
TAF
KMSP 091137Z 0912/1018 33015G20KT P6SM SKC
     FM091500 33012KT P6SM SCT025 BKN035
     FM100000 33009KT P6SM SCT200
     FM100900 35005KT P6SM FEW200=

USA.gov is the U.S. government's official web portal to all federal, state and local government web resources and services.